createdAt,value
2022-10-31T00:00:48.877Z,11.43
2022-10-31T00:03:16.783Z,11.39
2022-10-31T00:05:44.612Z,11.40
2022-10-31T00:08:11.262Z,11.35
2022-10-31T00:10:41.924Z,11.31
2022-10-31T00:13:09.814Z,11.19
2022-10-31T00:15:37.821Z,11.23
2022-10-31T00:18:05.810Z,11.19
2022-10-31T00:20:32.558Z,11.16
2022-10-31T00:23:02.993Z,11.12
2022-10-31T00:25:33.810Z,11.15
2022-10-31T00:28:00.626Z,11.20
2022-10-31T00:30:27.488Z,11.14
2022-10-31T00:32:54.008Z,11.12
2022-10-31T00:35:20.571Z,11.09
2022-10-31T00:37:47.140Z,10.81
2022-10-31T00:40:13.865Z,10.81
2022-10-31T00:42:41.517Z,10.72
2022-10-31T00:45:11.643Z,10.78
2022-10-31T00:47:38.702Z,10.86
2022-10-31T00:50:06.729Z,10.91
2022-10-31T00:52:33.226Z,10.84
2022-10-31T00:54:59.990Z,10.65
2022-10-31T00:57:26.797Z,10.65
2022-10-31T00:59:53.430Z,10.34
2022-10-31T01:05:10.982Z,10.63
2022-10-31T01:07:39.500Z,10.66
2022-10-31T01:10:10.446Z,10.71
2022-10-31T01:12:42.126Z,10.73
2022-10-31T01:15:10.135Z,10.77
2022-10-31T01:17:36.665Z,10.77
2022-10-31T01:20:04.935Z,10.76
2022-10-31T01:22:31.884Z,10.73
2022-10-31T01:25:01.130Z,10.67
2022-10-31T01:27:28.115Z,10.73
2022-10-31T01:29:54.726Z,10.72
2022-10-31T01:32:21.238Z,10.67
2022-10-31T01:34:48.029Z,10.49
2022-10-31T01:37:14.607Z,10.45
2022-10-31T01:39:41.230Z,10.47
2022-10-31T01:42:07.900Z,10.46
2022-10-31T01:44:34.456Z,10.47
2022-10-31T01:47:08.438Z,10.49
2022-10-31T01:49:40.901Z,10.50
2022-10-31T01:52:13.515Z,10.47
2022-10-31T01:54:44.644Z,10.40
2022-10-31T01:57:13.785Z,10.29
2022-10-31T01:59:45.336Z,10.37
2022-10-31T02:02:14.303Z,10.36
2022-10-31T02:04:41.684Z,10.34
2022-10-31T02:07:22.192Z,10.30
2022-10-31T02:09:50.611Z,10.23
2022-10-31T02:12:18.593Z,10.24
2022-10-31T02:14:45.377Z,10.26
2022-10-31T02:17:11.945Z,10.21
2022-10-31T02:20:25.019Z,10.17
2022-10-31T02:23:09.798Z,10.03
2022-10-31T02:25:47.974Z,9.87
2022-10-31T02:28:34.988Z,9.79
2022-10-31T02:31:05.909Z,9.76
2022-10-31T02:33:46.262Z,9.77
2022-10-31T02:36:35.637Z,9.81
2022-10-31T02:39:13.787Z,9.66
2022-10-31T02:42:09.512Z,9.64
2022-10-31T02:44:50.271Z,9.57
2022-10-31T02:47:19.911Z,9.56
2022-10-31T02:49:55.978Z,9.55
2022-10-31T02:52:26.444Z,9.51
2022-10-31T02:54:53.395Z,9.47
2022-10-31T02:57:28.710Z,9.17
2022-10-31T03:00:00.880Z,9.20
2022-10-31T03:02:58.968Z,9.31
2022-10-31T03:06:04.290Z,9.30
2022-10-31T03:08:36.859Z,9.30
2022-10-31T03:11:07.369Z,9.14
2022-10-31T03:13:53.030Z,9.13
2022-10-31T03:16:29.929Z,9.16
2022-10-31T03:18:59.740Z,9.17
2022-10-31T03:21:34.724Z,9.18
2022-10-31T03:24:03.153Z,9.23
2022-10-31T03:26:30.651Z,9.24
2022-10-31T03:29:07.564Z,9.26
2022-10-31T03:31:46.005Z,9.29
2022-10-31T03:34:15.101Z,9.35
2022-10-31T03:36:43.511Z,9.35
2022-10-31T03:39:16.580Z,9.35
2022-10-31T03:41:49.168Z,9.25
2022-10-31T03:44:20.129Z,9.14
2022-10-31T03:46:54.282Z,9.13
2022-10-31T03:49:22.484Z,8.81
2022-10-31T03:52:26.621Z,9.13
2022-10-31T03:55:01.036Z,8.83
2022-10-31T03:57:45.111Z,9.08
2022-10-31T04:00:14.679Z,9.07
2022-10-31T04:02:53.470Z,9.01
2022-10-31T04:05:21.529Z,8.92
2022-10-31T04:07:54.204Z,8.92
2022-10-31T04:10:24.172Z,8.88
2022-10-31T04:13:01.540Z,8.88
2022-10-31T04:15:35.972Z,8.75
2022-10-31T04:18:06.019Z,8.85
2022-10-31T04:20:35.146Z,8.78
2022-10-31T04:23:03.208Z,8.75
2022-10-31T04:25:31.101Z,8.62
2022-10-31T04:27:59.838Z,8.68
2022-10-31T04:30:26.649Z,8.64
2022-10-31T04:32:55.597Z,8.66
2022-10-31T04:35:23.534Z,8.47
2022-10-31T04:37:50.416Z,8.63
2022-10-31T04:40:17.336Z,8.62
2022-10-31T04:42:46.893Z,8.53
2022-10-31T04:45:16.849Z,8.58
2022-10-31T04:47:48.471Z,8.57
2022-10-31T04:50:15.307Z,8.54
2022-10-31T04:52:44.943Z,8.52
2022-10-31T04:55:14.423Z,8.49
2022-10-31T04:58:00.428Z,8.48
2022-10-31T05:00:27.630Z,8.38
2022-10-31T05:02:57.864Z,8.03
2022-10-31T05:05:30.001Z,7.44
2022-10-31T05:07:58.167Z,7.33
2022-10-31T05:10:28.495Z,7.14
2022-10-31T05:13:01.375Z,7.16
2022-10-31T05:15:29.301Z,7.29
2022-10-31T05:18:14.521Z,7.45
2022-10-31T05:20:59.343Z,7.44
2022-10-31T05:23:36.425Z,7.37
2022-10-31T05:26:05.437Z,7.46
2022-10-31T05:28:33.444Z,7.54
2022-10-31T05:31:00.174Z,7.49
2022-10-31T05:33:26.695Z,7.52
2022-10-31T05:36:12.265Z,7.36
2022-10-31T05:38:57.332Z,7.60
2022-10-31T05:41:25.907Z,7.57
2022-10-31T05:43:59.766Z,7.51
2022-10-31T05:46:29.095Z,7.47
2022-10-31T05:49:34.244Z,7.09
2022-10-31T05:52:19.512Z,6.98
2022-10-31T05:54:53.701Z,7.00
2022-10-31T05:57:20.391Z,7.14
2022-10-31T05:59:50.970Z,7.11
2022-10-31T06:02:21.552Z,6.85
2022-10-31T06:05:06.694Z,7.25
2022-10-31T06:07:34.711Z,7.25
2022-10-31T06:10:02.128Z,7.29
2022-10-31T06:12:30.751Z,7.32
2022-10-31T06:15:23.529Z,7.43
2022-10-31T06:18:07.098Z,7.48
2022-10-31T06:20:37.303Z,7.49
2022-10-31T06:23:05.604Z,7.49
2022-10-31T06:25:33.649Z,7.50
2022-10-31T06:28:00.455Z,7.41
2022-10-31T06:30:39.403Z,7.38
2022-10-31T06:33:06.493Z,7.24
2022-10-31T06:35:36.179Z,7.56
2022-10-31T06:38:03.158Z,7.62
2022-10-31T06:40:44.454Z,7.64
2022-10-31T06:43:34.514Z,7.56
2022-10-31T06:46:24.157Z,7.48
2022-10-31T06:49:10.402Z,7.60
2022-10-31T06:51:43.247Z,7.47
2022-10-31T06:54:09.945Z,7.64
2022-10-31T06:56:36.807Z,7.67
2022-10-31T06:59:04.107Z,7.73
2022-10-31T07:01:53.830Z,7.82
2022-10-31T07:04:20.600Z,7.81
2022-10-31T07:06:51.744Z,7.85
2022-10-31T07:09:19.267Z,7.87
2022-10-31T07:11:46.035Z,7.97
2022-10-31T07:14:13.164Z,7.94
2022-10-31T07:16:39.668Z,8.11
2022-10-31T07:19:06.988Z,8.19
2022-10-31T07:21:33.915Z,8.17
2022-10-31T07:24:01.696Z,8.07
2022-10-31T07:26:57.221Z,8.11
2022-10-31T07:29:24.679Z,8.25
2022-10-31T07:31:51.398Z,8.24
2022-10-31T07:34:24.789Z,8.32
2022-10-31T07:37:20.740Z,8.42
2022-10-31T07:39:48.431Z,8.41
2022-10-31T07:42:14.976Z,8.45
2022-10-31T07:44:44.657Z,8.36
2022-10-31T07:47:29.902Z,8.39
2022-10-31T07:50:17.829Z,8.38
2022-10-31T07:53:19.534Z,8.57
2022-10-31T07:56:09.207Z,8.69
2022-10-31T07:58:35.929Z,8.86
2022-10-31T08:01:02.600Z,8.84
2022-10-31T08:03:38.958Z,8.91
2022-10-31T08:06:23.773Z,9.07
2022-10-31T08:09:08.452Z,8.56
2022-10-31T08:11:35.293Z,9.32
2022-10-31T08:14:12.498Z,9.41
2022-10-31T08:16:42.935Z,9.39
2022-10-31T08:19:10.634Z,9.59
2022-10-31T08:21:39.022Z,9.70
2022-10-31T08:24:08.424Z,9.95
2022-10-31T08:26:44.776Z,10.09
2022-10-31T08:29:15.805Z,10.22
2022-10-31T08:35:02.077Z,9.95
2022-10-31T08:37:57.841Z,10.17
2022-10-31T08:40:29.941Z,10.01
2022-10-31T08:42:59.299Z,10.16
2022-10-31T08:45:26.881Z,10.57
2022-10-31T08:47:57.262Z,10.54
2022-10-31T08:50:24.168Z,10.75
2022-10-31T08:53:04.617Z,10.93
2022-10-31T08:55:37.753Z,11.01
2022-10-31T08:58:11.212Z,11.23
2022-10-31T09:00:44.556Z,11.33
2022-10-31T09:03:18.439Z,11.26
2022-10-31T09:05:45.888Z,11.46
2022-10-31T09:08:16.571Z,11.43
2022-10-31T09:10:46.992Z,11.50
2022-10-31T09:13:19.646Z,11.54
2022-10-31T09:16:05.611Z,11.48
2022-10-31T09:18:34.730Z,11.51
2022-10-31T09:21:01.801Z,11.51
2022-10-31T09:23:30.865Z,11.79
2022-10-31T09:26:01.027Z,11.76
2022-10-31T09:29:03.419Z,11.66
2022-10-31T09:31:44.785Z,11.99
2022-10-31T09:34:38.530Z,11.78
2022-10-31T09:37:10.092Z,11.91
2022-10-31T09:39:37.367Z,12.08
2022-10-31T09:42:39.977Z,12.61
2022-10-31T09:45:37.279Z,12.82
2022-10-31T09:48:21.854Z,13.15
2022-10-31T09:51:47.995Z,12.98
2022-10-31T09:54:52.840Z,13.28
2022-10-31T09:57:35.025Z,13.52
2022-10-31T10:00:06.572Z,13.47
2022-10-31T10:03:48.451Z,13.66
2022-10-31T10:06:48.102Z,13.85
2022-10-31T10:09:33.609Z,13.93
2022-10-31T10:13:02.358Z,13.89
2022-10-31T10:15:58.060Z,13.77
2022-10-31T10:18:57.682Z,13.96
2022-10-31T10:21:36.449Z,13.94
2022-10-31T10:24:28.384Z,14.12
2022-10-31T10:27:23.504Z,14.38
2022-10-31T10:30:13.220Z,14.68
2022-10-31T10:33:01.707Z,14.61
2022-10-31T10:35:32.572Z,14.40
2022-10-31T10:38:12.284Z,14.69
2022-10-31T10:40:42.538Z,14.45
2022-10-31T10:43:21.729Z,14.60
2022-10-31T10:46:10.833Z,14.75
2022-10-31T10:48:57.443Z,14.98
2022-10-31T10:55:01.149Z,14.95
2022-10-31T10:57:31.076Z,15.04
2022-10-31T11:00:01.209Z,14.70
2022-10-31T11:02:33.672Z,15.20
2022-10-31T11:05:02.573Z,15.36
2022-10-31T11:07:55.413Z,15.36
2022-10-31T11:10:26.970Z,15.24
2022-10-31T11:13:24.589Z,15.37
2022-10-31T11:16:11.507Z,15.30
2022-10-31T11:18:47.233Z,14.72
2022-10-31T11:21:39.236Z,15.09
2022-10-31T11:24:34.402Z,15.12
2022-10-31T11:27:21.064Z,15.16
2022-10-31T11:30:06.673Z,15.54
2022-10-31T11:32:35.221Z,15.42
2022-10-31T11:35:07.499Z,15.43
2022-10-31T11:37:41.006Z,15.71
2022-10-31T11:40:16.480Z,15.44
2022-10-31T11:42:43.949Z,16.00
2022-10-31T11:45:22.313Z,15.84
2022-10-31T11:47:59.214Z,15.60
2022-10-31T11:50:36.380Z,15.52
2022-10-31T11:53:04.224Z,15.45
2022-10-31T11:55:36.895Z,15.32
2022-10-31T11:58:04.483Z,15.41
2022-10-31T12:00:38.915Z,15.64
2022-10-31T12:03:41.696Z,15.78
2022-10-31T12:06:26.086Z,15.58
2022-10-31T12:08:52.677Z,15.57
2022-10-31T12:11:31.092Z,15.60
2022-10-31T12:14:38.877Z,15.74
2022-10-31T12:17:20.711Z,15.56
2022-10-31T12:19:53.862Z,15.63
2022-10-31T12:22:46.784Z,15.72
2022-10-31T12:25:22.673Z,15.73
2022-10-31T12:28:01.920Z,15.82
2022-10-31T12:30:42.002Z,15.52
2022-10-31T12:33:38.644Z,15.44
2022-10-31T12:36:41.729Z,15.27
2022-10-31T12:39:26.593Z,15.42
2022-10-31T12:42:29.731Z,15.22
2022-10-31T12:45:23.519Z,15.23
2022-10-31T12:48:08.615Z,15.15
2022-10-31T12:50:51.562Z,15.14
2022-10-31T12:53:37.174Z,15.18
2022-10-31T12:56:11.460Z,15.32
2022-10-31T12:58:44.654Z,15.04
2022-10-31T13:01:24.197Z,15.08
2022-10-31T13:04:04.266Z,14.91
2022-10-31T13:06:45.070Z,14.98
2022-10-31T13:09:20.596Z,15.07
2022-10-31T13:11:58.028Z,15.05
2022-10-31T13:14:30.814Z,14.98
2022-10-31T13:16:58.246Z,14.83
2022-10-31T13:19:31.237Z,15.02
2022-10-31T13:22:09.698Z,15.08
2022-10-31T13:24:36.201Z,14.96
2022-10-31T13:27:13.953Z,14.85
2022-10-31T13:30:13.259Z,14.95
2022-10-31T13:32:55.068Z,14.67
2022-10-31T13:36:07.796Z,14.90
2022-10-31T13:38:37.491Z,14.77
2022-10-31T13:41:15.764Z,14.71
2022-10-31T13:44:03.586Z,14.64
2022-10-31T13:49:31.328Z,14.76
2022-10-31T13:52:09.962Z,14.55
2022-10-31T13:54:39.756Z,14.55
2022-10-31T13:57:36.237Z,14.54
2022-10-31T14:00:24.889Z,14.59
2022-10-31T14:02:54.478Z,14.81
2022-10-31T14:05:27.527Z,14.72
2022-10-31T14:07:57.240Z,14.71
2022-10-31T14:10:30.183Z,14.58
2022-10-31T14:13:21.997Z,14.62
2022-10-31T14:16:01.694Z,14.62
2022-10-31T14:18:34.460Z,14.58
2022-10-31T14:21:01.238Z,14.71
2022-10-31T14:23:33.522Z,14.64
2022-10-31T14:26:20.891Z,14.60
2022-10-31T14:28:49.940Z,14.55
2022-10-31T14:31:44.465Z,14.60
2022-10-31T14:34:20.449Z,14.48
2022-10-31T14:37:08.298Z,14.46
2022-10-31T14:40:00.642Z,14.41
2022-10-31T14:42:27.245Z,14.41
2022-10-31T14:45:14.965Z,14.16
2022-10-31T14:48:05.245Z,13.92
2022-10-31T14:50:47.461Z,14.00
2022-10-31T14:53:21.829Z,13.82
2022-10-31T14:55:51.155Z,14.08
2022-10-31T14:58:24.592Z,14.05
2022-10-31T15:00:56.912Z,13.92
2022-10-31T15:03:34.365Z,14.29
2022-10-31T15:06:06.994Z,14.26
2022-10-31T15:08:44.577Z,14.49
2022-10-31T15:11:25.577Z,14.63
2022-10-31T15:13:57.610Z,14.56
2022-10-31T15:19:07.373Z,14.06
2022-10-31T15:21:35.269Z,14.01
2022-10-31T15:24:03.442Z,14.08
2022-10-31T15:26:39.253Z,14.18
2022-10-31T15:29:12.321Z,13.76
2022-10-31T15:31:38.925Z,13.93
2022-10-31T15:34:23.102Z,13.68
2022-10-31T15:36:50.351Z,13.58
2022-10-31T15:39:17.666Z,13.63
2022-10-31T15:41:56.047Z,13.66
2022-10-31T15:44:35.286Z,13.73
2022-10-31T15:47:07.171Z,13.48
2022-10-31T15:49:33.703Z,13.57
2022-10-31T15:52:11.200Z,13.63
2022-10-31T15:54:52.653Z,13.98
2022-10-31T15:57:19.389Z,14.15
2022-10-31T15:59:49.731Z,14.21
2022-10-31T16:02:21.099Z,14.12
2022-10-31T16:04:54.397Z,14.16
2022-10-31T16:07:23.550Z,14.15
2022-10-31T16:09:54.519Z,14.15
2022-10-31T16:12:23.286Z,14.15
2022-10-31T16:14:52.645Z,13.95
2022-10-31T16:17:22.495Z,13.57
2022-10-31T16:20:14.025Z,13.92
2022-10-31T16:22:40.823Z,13.89
2022-10-31T16:25:16.676Z,13.92
2022-10-31T16:27:54.240Z,13.66
2022-10-31T16:30:29.439Z,13.82
2022-10-31T16:33:01.217Z,13.68
2022-10-31T16:35:38.161Z,13.68
2022-10-31T16:38:05.955Z,13.65
2022-10-31T16:40:33.159Z,13.67
2022-10-31T16:43:01.928Z,13.71
2022-10-31T16:45:32.714Z,13.69
2022-10-31T16:48:07.458Z,13.69
2022-10-31T16:50:34.340Z,13.69
2022-10-31T16:53:13.333Z,13.64
2022-10-31T16:55:51.620Z,13.63
2022-10-31T16:58:30.085Z,13.56
2022-10-31T17:00:59.302Z,13.49
2022-10-31T17:03:26.161Z,13.50
2022-10-31T17:05:52.945Z,13.42
2022-10-31T17:08:19.637Z,13.24
2022-10-31T17:10:48.302Z,13.25
2022-10-31T17:13:19.684Z,13.23
2022-10-31T17:15:50.446Z,13.17
2022-10-31T17:18:20.555Z,13.14
2022-10-31T17:20:55.571Z,12.96
2022-10-31T17:23:22.264Z,12.90
2022-10-31T17:25:48.745Z,12.75
2022-10-31T17:28:15.739Z,12.58
2022-10-31T17:30:43.536Z,12.58
2022-10-31T17:33:14.125Z,12.67
2022-10-31T17:35:42.246Z,12.63
2022-10-31T17:38:08.803Z,12.63
2022-10-31T17:40:38.527Z,12.58
2022-10-31T17:43:05.816Z,12.46
2022-10-31T17:45:32.786Z,12.31
2022-10-31T17:47:59.281Z,12.28
2022-10-31T17:50:27.242Z,12.12
2022-10-31T17:52:53.760Z,12.07
2022-10-31T17:55:20.577Z,12.14
2022-10-31T17:57:47.119Z,11.91
2022-10-31T18:00:19.731Z,11.85
2022-10-31T18:02:46.920Z,11.87
2022-10-31T18:05:13.714Z,12.01
2022-10-31T18:07:40.348Z,12.07
2022-10-31T18:10:07.668Z,12.07
2022-10-31T18:12:36.442Z,12.15
2022-10-31T18:15:03.481Z,12.07
2022-10-31T18:17:30.350Z,12.06
2022-10-31T18:19:56.914Z,12.08
2022-10-31T18:22:23.652Z,11.86
2022-10-31T18:24:50.168Z,11.95
2022-10-31T18:27:16.877Z,12.03
2022-10-31T18:29:43.398Z,12.08
2022-10-31T18:32:09.973Z,11.99
2022-10-31T18:34:36.870Z,12.08
2022-10-31T18:37:03.513Z,12.17
2022-10-31T18:39:30.091Z,12.05
2022-10-31T18:41:56.949Z,12.18
2022-10-31T18:44:23.476Z,12.02
2022-10-31T18:46:50.078Z,11.96
2022-10-31T18:49:16.704Z,11.83
2022-10-31T18:51:43.243Z,11.88
2022-10-31T18:54:09.745Z,11.86
2022-10-31T18:56:36.379Z,11.82
2022-10-31T18:59:02.873Z,11.47
2022-10-31T19:01:30.057Z,11.78
2022-10-31T19:03:58.010Z,11.62
2022-10-31T19:06:26.032Z,11.47
2022-10-31T19:09:00.456Z,11.39
2022-10-31T19:11:27.654Z,11.20
2022-10-31T19:13:54.439Z,10.95
2022-10-31T19:16:21.237Z,10.82
2022-10-31T19:18:47.739Z,10.80
2022-10-31T19:21:16.617Z,10.81
2022-10-31T19:23:44.925Z,10.76
2022-10-31T19:26:12.321Z,10.66
2022-10-31T19:28:40.612Z,10.67
2022-10-31T19:31:08.536Z,10.77
2022-10-31T19:33:36.140Z,10.72
2022-10-31T19:36:07.264Z,10.91
2022-10-31T19:38:35.091Z,10.92
2022-10-31T19:41:05.162Z,10.96
2022-10-31T19:43:32.170Z,11.10
2022-10-31T19:46:00.944Z,10.85
2022-10-31T19:48:28.117Z,11.20
2022-10-31T19:51:01.031Z,11.16
2022-10-31T19:53:29.727Z,11.24
2022-10-31T19:55:56.785Z,11.01
2022-10-31T19:58:24.013Z,10.95
2022-10-31T20:00:50.842Z,10.82
2022-10-31T20:03:19.932Z,10.77
2022-10-31T20:05:49.222Z,10.85
2022-10-31T20:08:18.282Z,10.66
2022-10-31T20:10:58.659Z,10.51
2022-10-31T20:13:25.975Z,10.38
2022-10-31T20:15:52.729Z,10.16
2022-10-31T20:18:19.398Z,9.95
2022-10-31T20:20:46.406Z,10.04
2022-10-31T20:23:12.977Z,10.22
2022-10-31T20:25:47.255Z,10.27
2022-10-31T20:28:17.266Z,10.15
2022-10-31T20:30:44.381Z,9.99
2022-10-31T20:33:11.398Z,9.99
2022-10-31T20:35:40.839Z,10.08
2022-10-31T20:38:08.468Z,10.00
2022-10-31T20:40:35.597Z,9.93
2022-10-31T20:43:03.940Z,10.02
2022-10-31T20:45:31.228Z,10.04
2022-10-31T20:47:58.763Z,10.18
2022-10-31T20:50:26.136Z,10.11
2022-10-31T20:52:52.959Z,10.22
2022-10-31T20:55:19.933Z,10.46
2022-10-31T20:57:46.816Z,10.65
2022-10-31T21:00:14.028Z,10.75
2022-10-31T21:02:41.795Z,10.85
2022-10-31T21:05:12.306Z,10.84
2022-10-31T21:07:40.101Z,10.66
2022-10-31T21:10:07.770Z,10.64
2022-10-31T21:12:34.357Z,10.55
2022-10-31T21:15:00.961Z,10.43
2022-10-31T21:17:28.281Z,10.45
2022-10-31T21:19:54.845Z,10.50
2022-10-31T21:22:22.799Z,10.50
2022-10-31T21:24:49.510Z,10.49
2022-10-31T21:27:16.091Z,10.55
2022-10-31T21:29:42.617Z,10.61
2022-10-31T21:32:09.281Z,10.55
2022-10-31T21:34:35.779Z,10.59
2022-10-31T21:37:02.392Z,10.62
2022-10-31T21:39:28.899Z,10.67
2022-10-31T21:41:55.461Z,10.75
2022-10-31T21:44:21.945Z,10.77
2022-10-31T21:46:48.619Z,10.77
2022-10-31T21:49:15.122Z,10.72
2022-10-31T21:51:41.683Z,10.55
2022-10-31T21:54:12.302Z,10.59
2022-10-31T21:56:39.377Z,10.49
2022-10-31T21:59:06.518Z,10.57
2022-10-31T22:01:34.780Z,10.65
2022-10-31T22:04:02.190Z,10.62
2022-10-31T22:06:29.125Z,10.71
2022-10-31T22:08:57.495Z,10.69
2022-10-31T22:11:24.158Z,10.67
2022-10-31T22:13:50.836Z,10.69
2022-10-31T22:16:19.784Z,10.76
2022-10-31T22:18:47.416Z,10.71
2022-10-31T22:21:20.059Z,10.67
2022-10-31T22:23:55.011Z,10.70
2022-10-31T22:26:22.024Z,10.57
2022-10-31T22:28:51.705Z,10.57
2022-10-31T22:31:20.728Z,10.40
2022-10-31T22:33:47.955Z,10.22
2022-10-31T22:36:17.144Z,10.11
2022-10-31T22:38:44.924Z,10.16
2022-10-31T22:41:14.040Z,10.17
2022-10-31T22:43:41.029Z,10.09
2022-10-31T22:46:10.309Z,9.97
2022-10-31T22:48:40.310Z,10.22
2022-10-31T22:51:08.894Z,10.22
2022-10-31T22:53:37.177Z,10.31
2022-10-31T22:56:05.348Z,10.25
2022-10-31T22:58:33.185Z,10.13
2022-10-31T23:01:00.650Z,10.01
2022-10-31T23:03:27.439Z,9.97
2022-10-31T23:06:01.563Z,10.08
2022-10-31T23:08:29.633Z,10.12
2022-10-31T23:10:56.368Z,10.15
2022-10-31T23:13:23.307Z,10.09
2022-10-31T23:15:49.797Z,10.11
2022-10-31T23:18:36.663Z,9.97
2022-10-31T23:21:05.465Z,9.88
2022-10-31T23:23:36.889Z,9.77
2022-10-31T23:26:04.593Z,9.58
2022-10-31T23:28:32.053Z,9.48
2022-10-31T23:30:58.681Z,9.56
2022-10-31T23:33:30.549Z,9.55
2022-10-31T23:35:58.010Z,9.43
2022-10-31T23:38:24.541Z,9.58
2022-10-31T23:40:51.084Z,9.57
2022-10-31T23:43:17.695Z,9.44
2022-10-31T23:45:44.616Z,9.20
2022-10-31T23:48:11.131Z,9.56
2022-10-31T23:50:38.143Z,9.70
2022-10-31T23:53:04.944Z,9.80
2022-10-31T23:55:31.646Z,10.01
2022-10-31T23:57:58.168Z,10.00
